Sublette, IL (61367)

7:37 AM CDT on August 29, 2015 (GMT -0500)
KILSUBLE2 | | Change Station
CLOSE
Current Station
Personal Weather Station
Location: Sublette, IL
Elevation: 927 ft
Nearby Weather Stations

Elev 927 ft 41.65 °N, 89.23 °W | Updated 6 seconds ago

Overcast
Overcast
62.8 °F
Feels Like 62.8 °F
N
3.3
Wind Variable Wind from ESE
Gusts 4.0 mph

Today
High -- | Low -- °F
--% Chance of Precip.
Yesterday
High -- | Low -- °F
Precip. -- in
6:19 AM 7:35 PM
Full, 100% visible
Pressure 30.01 in
Visibility 10.0 miles
Clouds Scattered Clouds 4600 ft
Mostly Cloudy 8500 ft
Mostly Cloudy 12000 ft
Dew Point 62 °F
Humidity 96%
Rainfall 0.46 in
Snow Depth Not available.
UV 0 out of 12
Pollen .70 out of 12
Air Quality Not available.
Flu Activity Not available.
METAR KVYS 291215Z AUTO 16009KT 10SM SCT046 BKN085 BKN120 19/17 A3001 RMK AO2 T01860165
Pressure 30.01 in
Visibility 10.0 miles
Clouds Scattered Clouds 4600 ft
Mostly Cloudy 8500 ft
Mostly Cloudy 12000 ft
Dew Point 62 °F
Humidity 96%
Rainfall 0.46 in
Snow Depth Not available.
UV 0 out of 12
Pollen .70 out of 12
Air Quality Not available.
Flu Activity Not available.
METAR KVYS 291215Z AUTO 16009KT 10SM SCT046 BKN085 BKN120 19/17 A3001 RMK AO2 T01860165

10-Day Weather Forecast

×

Almanac

Astronomy

Aug. 29, 2015 Rise Set
Actual Time
Civil Twilight
Nautical Twilight
Astronomical Twilight
Moon
Length of Visible Light
Length of Day
Tomorrow will be .
, % of the Moon is Illuminated

Today's Extremes

State Highs State Lows

Community

WunderPhotos

Upload Photos

1,850,676 photos uploaded!

WunderBlogs® & News

Nearby

Air Quality

  Air Quality AQ Index Pollutant
Not available.

Snow Depth

Station Depth Elevation

Earthquake Activity

City Distance Mag. Time & Date
Minimum magnitude displayed is 2.5.

Coastal Water Temperatures

Place Temperature

Stations

Nearby Weather Stations

Station Location Temp. Windchill Dew Point Humidity Wind Precip. Elev Updated Type